Carr Mill, Alabama
Current Conditions -  °F | °C
As of 10:55 AM on Thursday 30 Oct 2014 (Local Time) from KALX Reporting Station
Clear Clear  
Wind Chill: 62°   Ceiling: Unl
Heat Index: 62°   Visibility: 10mi
Dew Point: 38°   Wind: 5mph
Humidity: 41%   Direction: 20°NNE
Pressure: 30.11"   Gusts: NA
Location:  33.2143°N, 85.8209°W
Report Text: KALX 301555Z AUTO 02004KT 10SM CLR 17/03 A3011 RMK AO2 T01690034
Loading
Personal Weather Stations






























Interactive Weather Map
Tropical Storm Tracking
New forecast layout! Learn more

10-Day Weather Forecast

Advertisements
Track Severe Weather on mobile